Main page
METAR-TAF:

METAR-TAF

Airports :

María Montez International Airport

Santa Cruz de Barahona, Dominican Republic

latitude: 18-12N, longitude: 071-06W, elevation: 3 m

Current weather observation

The report was made 1 hour and 18 minutes ago, at 21:00 UTC
Wind 10 kt from the Southeast
Temperature 31°C
Humidity 71%
Pressure 1009 hPa
Visibility 10 km or more
Few clouds at a height of 2000 ft, Cumulonimbus.
Scattered clouds at a height of 2200 ft
Scattered clouds at a height of 8000 ft

METAR: MDBH 182100Z 13010KT 9999 FEW020CB SCT022 SCT080 31/25 Q1009 CB/NE/S/SWNW/N

Time: 18:18 (22:18 UTC)

Forecast

The report was made 6 hours and 18 minutes ago, at 16:00 UTC
Forecast valid from 18 at 18 UTC to 19 at 18 UTC
Wind 10 kt from the Southeast
Visibility 10 km or more
Scattered clouds at a height of 2200 ft
Scattered clouds at a height of 8000 ft
Becoming
from 19 at 04 UTC to 19 at 06 UTC
Wind kt from the North

TAF: MDBH 181600Z 1818/1918 13010KT 9999 SCT022 SCT080 BECMG 1904/1906 00000KT

Weather observations and forecasts of more than 4000 airports (METAR and TAF reports).

The available stations are represented by yellow and red dots on the map.

Hover mouse over dot to see the name of the station.

Then click to see weather observations and forecasts.

To change the map : click on the green buttons with a black cross to zoom in, on the green button with a dash to zoom out, or on the green arrows for adjacent maps.


METAR-TAF: